»·PEaware :: N653AW KBOI-KSUN

N653AW :: KBOI-KSUN

FLIGHT INFORMATION

Flight Status: Arrived
Operator: Privately registered:
United States
More flights under this callsign
Pilot: Sergei F. (8485)
Aircraft: AIRBUS A320
(A320)
More flights by this aircraft type
Origin: KBOI Boise Air Terminal/Gowen
United States
Destination: KSUN Friedman Meml
United States
More flights between these airports :: More routes between these airports
Route: +BOI3 AROWS V444 SOLDE
File this flight plan on PilotEdge
Remarks:
Altitude:
(Current/Filed)
17,000ft
Speed:
(Current/Filed)
400kts
Departed: 03-May-20 09:40 PM
Arrived: 03-May-20 10:01 PM
Distance/Time
Traveled:
84nm/0:21
Distance/Time
To Go:
Arrived

Flight Plot

Page will automatically refresh every two minutes.


Map Options




Map Legend


Flown Route
Filed Route
Departure Airport
Arrival Airport
Navaid (VOR, NDB)
Fix

Horizontal Profiles

Position Reports

Time Latitude Longitude Heading Altitude Ground
Speed
03-May-20 20:46 43.566784 -116.216837 204 2856ft 0kts
03-May-20 20:47 43.566784 -116.216837 204 2856ft 0kts
03-May-20 20:48 43.566784 -116.216837 204 2856ft 0kts
03-May-20 20:49 43.566784 -116.216837 204 2856ft 0kts
03-May-20 20:50 43.566784 -116.216837 204 2856ft 0kts
03-May-20 20:51 43.566784 -116.216837 204 2856ft 0kts
03-May-20 20:52 43.566784 -116.216837 204 2856ft 0kts
03-May-20 20:53 43.566784 -116.216837 204 2856ft 0kts
03-May-20 20:54 43.566784 -116.216837 204 2856ft 0kts
03-May-20 20:55 43.566784 -116.216837 204 2856ft 0kts
03-May-20 20:56 43.566784 -116.216837 204 2856ft 0kts
03-May-20 20:57 43.566784 -116.216837 204 2856ft 0kts
03-May-20 20:58 43.566784 -116.216837 204 2856ft 0kts
03-May-20 20:59 43.566784 -116.216837 204 2856ft 0kts
03-May-20 21:00 43.566784 -116.216837 204 2856ft 0kts
03-May-20 21:01 43.566784 -116.216837 204 2856ft 0kts
03-May-20 21:02 43.566784 -116.216837 204 2856ft 0kts
03-May-20 21:03 43.566784 -116.216837 204 2856ft 0kts
03-May-20 21:04 43.566784 -116.216837 204 2856ft 0kts
03-May-20 21:05 43.566784 -116.216837 204 2856ft 0kts
03-May-20 21:06 43.566784 -116.216837 204 2856ft 0kts
03-May-20 21:07 43.566784 -116.216837 204 2856ft 0kts
03-May-20 21:08 43.566784 -116.216837 204 2856ft 0kts
03-May-20 21:09 43.566784 -116.216837 204 2856ft 0kts
03-May-20 21:10 43.566784 -116.216837 204 2856ft 0kts
03-May-20 21:11 43.566784 -116.216837 204 2856ft 0kts
03-May-20 21:12 43.566784 -116.216837 204 2856ft 0kts
03-May-20 21:13 43.566784 -116.216837 204 2856ft 0kts
03-May-20 21:14 43.566784 -116.216837 204 2856ft 0kts
03-May-20 21:15 43.566784 -116.216837 204 2856ft 0kts
03-May-20 21:17 43.566784 -116.216837 204 2856ft 0kts
03-May-20 21:18 43.566784 -116.216837 204 2856ft 0kts
03-May-20 21:19 43.566784 -116.216837 204 2856ft 0kts
03-May-20 21:20 43.566784 -116.216837 204 2856ft 0kts
03-May-20 21:21 43.566784 -116.216837 204 2856ft 0kts
03-May-20 21:22 43.566784 -116.216837 204 2856ft 0kts
03-May-20 21:23 43.566784 -116.216837 204 2856ft 0kts
03-May-20 21:24 43.566784 -116.216837 204 2856ft 0kts
03-May-20 21:25 43.566784 -116.216837 204 2856ft 0kts
03-May-20 21:26 43.566784 -116.216837 204 2856ft 0kts
03-May-20 21:27 43.566784 -116.216837 204 2856ft 0kts
03-May-20 21:28 43.566735 -116.216920 233 2856ft 1kts
03-May-20 21:29 43.566067 -116.217381 176 2857ft 0kts
03-May-20 21:30 43.566067 -116.217381 176 2857ft 0kts
03-May-20 21:31 43.565581 -116.217326 175 2857ft 0kts
03-May-20 21:32 43.565322 -116.217291 174 2857ft 4kts
03-May-20 21:33 43.565671 -116.220067 295 2854ft 12kts
03-May-20 21:34 43.567379 -116.225074 295 2849ft 15kts
03-May-20 21:35 43.569516 -116.231341 295 2840ft 16kts
03-May-20 21:35 43.570952 -116.235558 294 2831ft 3kts
03-May-20 21:37 43.570995 -116.235955 258 2831ft 0kts
03-May-20 21:37 43.570995 -116.235955 258 2831ft 0kts
03-May-20 21:38 43.570373 -116.236541 185 2829ft 7kts
03-May-20 21:40 43.561646 -116.212101 114 3142ft 170kts
03-May-20 21:40 43.543175 -116.160772 114 5569ft 201kts
03-May-20 21:41 43.514202 -116.077503 114 7887ft 281kts
03-May-20 21:42 43.492951 -115.973597 90 10983ft 308kts
03-May-20 21:43 43.489987 -115.849859 91 13805ft 338kts
03-May-20 21:44 43.468770 -115.719298 101 16520ft 357kts
03-May-20 21:45 43.442812 -115.575384 102 16978ft 425kts
03-May-20 21:46 43.413137 -115.411425 102 16988ft 447kts
03-May-20 21:47 43.382550 -115.246060 102 16988ft 447kts
03-May-20 21:48 43.352016 -115.081188 103 16926ft 441kts
03-May-20 21:49 43.323471 -114.928152 103 15879ft 393kts
03-May-20 21:50 43.296847 -114.787009 103 13845ft 377kts
03-May-20 21:51 43.270930 -114.650554 103 12227ft 349kts
03-May-20 21:52 43.248282 -114.531307 103 11577ft 305kts
03-May-20 21:53 43.265920 -114.428384 63 10965ft 266kts
03-May-20 21:54 43.294616 -114.343829 63 10912ft 225kts
03-May-20 21:55 43.330097 -114.278601 31 9963ft 211kts
03-May-20 21:56 43.379390 -114.251936 14 8617ft 190kts
03-May-20 21:57 43.428672 -114.233012 341 6855ft 179kts
03-May-20 21:58 43.467194 -114.260492 323 5928ft 141kts
03-May-20 21:59 43.499198 -114.291152 322 5277ft 119kts
03-May-20 22:00 43.505521 -114.298328 245 5300ft 0kts
03-May-20 22:01 43.505516 -114.298357 254 5300ft 0kts
03-May-20 22:02 43.506120 -114.299301 324 5302ft 8kts
03-May-20 22:03 43.507692 -114.300942 287 5309ft 4kts
03-May-20 22:04 43.507273 -114.301076 159 5308ft 0kts
03-May-20 22:05 43.507273 -114.301076 159 5308ft 0kts
03-May-20 22:06 43.507273 -114.301076 159 5308ft 0kts

Navigation Log

Ident Type
Flight plan parsing failed, navigation log unavailable